PWSweather.com
Personal Weather Stations
Station Observations
PITCARMI1
La Serra, CarmignanoIT 59015

La SerraCarmignanoIT 59015

Lat: 43.804429, Lon: 11.027222

Elevation: 525

Station Type: Davis Vantage Vue

http://www.meteocarmignano.it

High Low Average
Temperature 0.0°F-17.8°F 0.0°F-17.8°F 0.0°F-17.8°F
Dew Point 0.0°F-17.8°F 0.0°F-17.8°F 0.0°F-17.8°F
Winds Calm Calm Calm Calm Calm Calm
Wind Gusts -- -- --
Humidity 0% 0% 0%
Pressure 0.00 in0.00 in 0.00 in0.00 in -
Precipitation 0.00 in0.0 mm - -
Hour Temp Dew Point Humidity Winds Wind Gusts Pressure Precip Precip Rate Daily Precip Total
12:00 AM 52.1°F11.2°C 49.3°F9.6°C 90% Calm Calm -- 29.87 in1011.5 mb - 0.00 in0.0 mm 0.00 in0.0 mm
12:30 AM 50.2°F10.1°C 47.7°F8.7°C 91% Calm Calm -- 29.87 in1011.5 mb - 0.00 in0.0 mm 0.00 in0.0 mm
01:00 AM 51.4°F10.8°C 49.2°F9.6°C 92% Calm Calm -- 29.87 in1011.5 mb - 0.00 in0.0 mm 0.00 in0.0 mm
01:30 AM 51.1°F10.6°C 49.2°F9.6°C 93% 2.3 mph SW3.7 kmh SW 2.3 mph3.7 kmh 29.88 in1011.9 mb - 0.00 in0.0 mm 0.00 in0.0 mm
02:00 AM 51.1°F10.6°C 48.9°F9.4°C 92% Calm Calm 1.2 mph1.9 kmh 29.87 in1011.5 mb - 0.00 in0.0 mm 0.00 in0.0 mm
02:30 AM 51.2°F10.7°C 48.7°F9.3°C 91% 1.2 mph SW1.9 kmh SW 2.3 mph3.7 kmh 29.89 in1012.2 mb - 0.00 in0.0 mm 0.00 in0.0 mm
03:00 AM 50.8°F10.4°C 48.8°F9.3°C 93% Calm Calm 1.2 mph1.9 kmh 29.88 in1011.9 mb - 0.00 in0.0 mm 0.00 in0.0 mm
03:30 AM 51.0°F10.6°C 49.0°F9.4°C 93% 1.2 mph E1.9 kmh E 1.2 mph1.9 kmh 29.89 in1012.2 mb - 0.00 in0.0 mm 0.00 in0.0 mm
04:00 AM 50.7°F10.4°C 48.8°F9.3°C 93% 1.2 mph WSW1.9 kmh WSW 1.2 mph1.9 kmh 29.86 in1011.2 mb - 0.00 in0.0 mm 0.00 in0.0 mm
04:30 AM 50.6°F10.3°C 48.9°F9.4°C 94% Calm Calm -- 29.85 in1010.8 mb - 0.00 in0.0 mm 0.00 in0.0 mm
05:00 AM 51.2°F10.7°C 49.5°F9.7°C 94% Calm Calm -- 29.86 in1011.2 mb - 0.00 in0.0 mm 0.00 in0.0 mm
05:30 AM 49.3°F9.6°C 47.4°F8.6°C 93% Calm Calm -- 29.86 in1011.2 mb - 0.00 in0.0 mm 0.00 in0.0 mm
06:00 AM 49.5°F9.7°C 47.9°F8.8°C 94% Calm Calm -- 29.87 in1011.5 mb - 0.00 in0.0 mm 0.00 in0.0 mm
06:30 AM 49.4°F9.7°C 47.8°F8.8°C 94% Calm Calm -- 29.89 in1012.2 mb - 0.00 in0.0 mm 0.00 in0.0 mm
07:00 AM 49.9°F9.9°C 48.5°F9.2°C 95% Calm Calm -- 29.89 in1012.2 mb - 0.00 in0.0 mm 0.00 in0.0 mm
07:30 AM 49.8°F9.9°C 48.2°F9.0°C 94% 1.2 mph SW1.9 kmh SW 2.3 mph3.7 kmh 29.90 in1012.5 mb - 0.00 in0.0 mm 0.00 in0.0 mm
08:00 AM 51.6°F10.9°C 49.9°F9.9°C 94% 2.3 mph SE3.7 kmh SE 2.3 mph3.7 kmh 29.91 in1012.9 mb - 0.00 in0.0 mm 0.00 in0.0 mm
08:30 AM 53.6°F12.0°C 51.4°F10.8°C 92% 1.2 mph SW1.9 kmh SW 3.5 mph5.6 kmh 29.90 in1012.5 mb - 0.00 in0.0 mm 0.00 in0.0 mm
09:00 AM 57.7°F14.3°C 53.9°F12.2°C 87% 1.2 mph ESE1.9 kmh ESE 2.3 mph3.7 kmh 29.90 in1012.5 mb - 0.00 in0.0 mm 0.00 in0.0 mm
09:30 AM 59.5°F15.3°C 54.0°F12.2°C 82% Calm Calm 1.2 mph1.9 kmh 29.89 in1012.2 mb - 0.00 in0.0 mm 0.00 in0.0 mm
10:00 AM 60.1°F15.6°C 53.3°F11.8°C 78% 1.2 mph ENE1.9 kmh ENE 3.5 mph5.6 kmh 29.90 in1012.5 mb - 0.00 in0.0 mm 0.00 in0.0 mm
10:30 AM 60.5°F15.8°C 52.9°F11.6°C 76% 2.3 mph WSW3.7 kmh WSW 6.9 mph11.1 kmh 29.90 in1012.5 mb - 0.00 in0.0 mm 0.00 in0.0 mm
11:00 AM 60.5°F15.8°C 52.9°F11.6°C 76% 9.2 mph WSW14.8 kmh WSW 11.5 mph18.5 kmh 29.89 in1012.2 mb - 0.00 in0.0 mm 0.00 in0.0 mm
11:30 AM 62.0°F16.7°C 52.5°F11.4°C 71% 10.4 mph WSW16.7 kmh WSW 19.6 mph31.5 kmh 29.87 in1011.5 mb - 0.00 in0.0 mm 0.00 in0.0 mm
12:00 PM 62.1°F16.7°C 52.6°F11.4°C 71% 8.1 mph SW13.0 kmh SW 11.5 mph18.5 kmh 29.86 in1011.2 mb - 0.00 in0.0 mm 0.00 in0.0 mm
12:30 PM 63.7°F17.6°C 53.7°F12.1°C 70% 1.2 mph N1.9 kmh N 1.2 mph1.9 kmh 29.85 in1010.8 mb - 0.00 in0.0 mm 0.00 in0.0 mm
01:00 PM 65.6°F18.7°C 54.0°F12.2°C 66% 4.6 mph WSW7.4 kmh WSW 6.9 mph11.1 kmh 29.83 in1010.2 mb - 0.00 in0.0 mm 0.00 in0.0 mm
01:30 PM 66.0°F18.9°C 51.3°F10.7°C 59% 6.9 mph W11.1 kmh W 17.3 mph27.8 kmh 29.82 in1009.8 mb - 0.00 in0.0 mm 0.00 in0.0 mm
02:00 PM 64.5°F18.1°C 51.2°F10.7°C 62% 10.4 mph WSW16.7 kmh WSW 18.4 mph29.6 kmh 29.80 in1009.1 mb - 0.00 in0.0 mm 0.00 in0.0 mm
02:30 PM 65.4°F18.6°C 52.1°F11.2°C 62% 13.8 mph WSW22.2 kmh WSW 26.5 mph42.6 kmh 29.78 in1008.5 mb - 0.00 in0.0 mm 0.00 in0.0 mm
03:00 PM 64.4°F18.0°C 52.4°F11.3°C 65% 9.2 mph WNW14.8 kmh WNW 12.7 mph20.4 kmh 29.78 in1008.5 mb - 0.00 in0.0 mm 0.00 in0.0 mm
03:30 PM 64.3°F17.9°C 51.8°F11.0°C 64% 15.0 mph WSW24.1 kmh WSW 21.9 mph35.2 kmh 29.77 in1008.1 mb - 0.00 in0.0 mm 0.00 in0.0 mm
04:00 PM 64.7°F18.2°C 51.8°F11.0°C 63% 13.8 mph WSW22.2 kmh WSW 19.6 mph31.5 kmh 29.76 in1007.8 mb - 0.00 in0.0 mm 0.00 in0.0 mm
04:30 PM 62.9°F17.2°C 52.1°F11.2°C 68% 10.4 mph SW16.7 kmh SW 19.6 mph31.5 kmh 29.75 in1007.5 mb - 0.00 in0.0 mm 0.00 in0.0 mm
05:00 PM 61.2°F16.2°C 52.1°F11.2°C 72% 16.1 mph WSW25.9 kmh WSW 25.3 mph40.7 kmh 29.74 in1007.1 mb - 0.00 in0.0 mm 0.00 in0.0 mm
05:30 PM 60.5°F15.8°C 52.2°F11.2°C 74% 11.5 mph SW18.5 kmh SW 17.3 mph27.8 kmh 29.74 in1007.1 mb - 0.00 in0.0 mm 0.00 in0.0 mm
06:00 PM 59.7°F15.4°C 52.1°F11.2°C 76% 6.9 mph SW11.1 kmh SW 12.7 mph20.4 kmh 29.74 in1007.1 mb - 0.00 in0.0 mm 0.00 in0.0 mm
06:30 PM 59.3°F15.2°C 52.1°F11.2°C 77% 6.9 mph W11.1 kmh W 17.3 mph27.8 kmh 29.75 in1007.5 mb - 0.00 in0.0 mm 0.00 in0.0 mm
07:00 PM 59.0°F15.0°C 51.8°F11.0°C 77% Calm Calm 2.3 mph3.7 kmh 29.75 in1007.5 mb - 0.00 in0.0 mm 0.00 in0.0 mm
07:30 PM 59.0°F15.0°C 51.1°F10.6°C 75% 8.1 mph W13.0 kmh W 11.5 mph18.5 kmh 29.75 in1007.5 mb - 0.00 in0.0 mm 0.00 in0.0 mm
08:00 PM 58.6°F14.8°C 51.4°F10.8°C 77% 2.3 mph WNW3.7 kmh WNW 4.6 mph7.4 kmh 29.75 in1007.5 mb - 0.00 in0.0 mm 0.00 in0.0 mm
08:30 PM 58.8°F14.9°C 51.6°F10.9°C 77% 2.3 mph W3.7 kmh W 5.8 mph9.3 kmh 29.76 in1007.8 mb - 0.00 in0.0 mm 0.00 in0.0 mm
09:00 PM 59.0°F15.0°C 51.4°F10.8°C 76% 3.5 mph NE5.6 kmh NE 8.1 mph13.0 kmh 29.75 in1007.5 mb - 0.00 in0.0 mm 0.00 in0.0 mm
09:30 PM 59.1°F15.1°C 51.9°F11.1°C 77% Calm Calm 2.3 mph3.7 kmh 29.76 in1007.8 mb - 0.00 in0.0 mm 0.00 in0.0 mm
10:00 PM 58.9°F14.9°C 51.7°F10.9°C 77% Calm Calm 2.3 mph3.7 kmh 29.77 in1008.1 mb - 0.00 in0.0 mm 0.00 in0.0 mm
10:30 PM 58.5°F14.7°C 52.0°F11.1°C 79% Calm Calm 1.2 mph1.9 kmh 29.78 in1008.5 mb - 0.00 in0.0 mm 0.00 in0.0 mm
11:00 PM 58.1°F14.5°C 52.0°F11.1°C 80% Calm Calm 2.3 mph3.7 kmh 29.78 in1008.5 mb - 0.00 in0.0 mm 0.00 in0.0 mm
11:30 PM 57.9°F14.4°C 52.1°F11.2°C 81% 2.3 mph WSW3.7 kmh WSW 3.5 mph5.6 kmh 29.78 in1008.5 mb - 0.00 in0.0 mm 0.00 in0.0 mm